Time;durP1;ratioP1;P1;durP2;ratioP2;P2;SDS_P1;SDS_P2;PMS_P1;PMS_P2;Temp;Humidity;BMP_temperature;BMP_pressure;BME280_temperature;BME280_humidity;BME280_pressure;Samples;Min_cycle;Max_cycle;Signal;HPM_P1;HPM_P2
2022/06/15 00:01:58;;;;;;;66.45;51.42;;;22.60;56.40;;;;;;4913251;28;90889;-61
2022/06/15 00:04:24;;;;;;;65.75;51.67;;;22.50;56.30;;;;;;4917297;28;89293;-60
2022/06/15 00:06:49;;;;;;;65.47;51.38;;;22.50;56.30;;;;;;4921686;28;90071;-62
2022/06/15 00:09:15;;;;;;;65.68;51.47;;;22.60;56.40;;;;;;4922815;28;89852;-63
2022/06/15 00:11:43;;;;;;;65.32;51.38;;;22.50;56.30;;;;;;4921752;28;90382;-61
2022/06/15 00:14:18;;;;;;;66.00;51.78;;;22.50;56.30;;;;;;4923617;28;90841;-62
2022/06/15 00:16:44;;;;;;;65.82;51.50;;;22.40;56.50;;;;;;4928658;28;89991;-61
2022/06/15 00:19:10;;;;;;;66.90;51.38;;;22.50;56.40;;;;;;4913703;28;91791;-61
2022/06/15 00:21:36;;;;;;;65.65;51.42;;;22.50;56.40;;;;;;4924599;28;90655;-61
2022/06/15 00:24:02;;;;;;;66.13;51.03;;;22.50;56.40;;;;;;4921563;28;89922;-61
2022/06/15 00:26:28;;;;;;;66.72;51.22;;;22.40;56.30;;;;;;4931247;28;90099;-61
2022/06/15 00:28:54;;;;;;;65.47;51.42;;;22.40;56.60;;;;;;4924515;28;89117;-61
2022/06/15 00:31:20;;;;;;;64.75;51.15;;;22.40;56.50;;;;;;4921554;28;90376;-61
2022/06/15 00:33:46;;;;;;;65.13;51.55;;;22.40;56.50;;;;;;4914291;28;91164;-62
2022/06/15 00:36:20;;;;;;;65.55;51.53;;;22.40;56.60;;;;;;4921101;28;91287;-61
2022/06/15 00:38:48;;;;;;;64.40;50.75;;;22.40;56.50;;;;;;4919358;28;91959;-61
2022/06/15 00:41:18;;;;;;;65.22;51.00;;;22.30;56.60;;;;;;4927393;28;90947;-61
2022/06/15 00:43:50;;;;;;;67.05;51.08;;;22.30;56.60;;;;;;4917233;28;89952;-62
2022/06/15 00:46:43;;;;;;;65.45;51.40;;;22.30;56.70;;;;;;4925599;28;90453;-62
2022/06/15 00:49:10;;;;;;;64.40;50.97;;;22.30;56.70;;;;;;4914832;28;90747;-61
2022/06/15 00:51:37;;;;;;;65.28;51.20;;;22.30;56.70;;;;;;4927793;28;91115;-61
2022/06/15 00:54:04;;;;;;;65.38;51.22;;;22.30;56.70;;;;;;4917557;28;89430;-61
2022/06/15 00:56:31;;;;;;;64.85;51.30;;;22.30;56.70;;;;;;4926894;28;89891;-62
2022/06/15 00:59:07;;;;;;;65.57;51.33;;;22.20;56.70;;;;;;4918135;28;90041;-61
2022/06/15 01:01:33;;;;;;;65.25;51.17;;;22.20;56.70;;;;;;4926873;28;92637;-61
2022/06/15 01:04:01;;;;;;;64.55;51.33;;;22.20;56.90;;;;;;4915632;28;91181;-62
2022/06/15 01:06:33;;;;;;;67.18;51.05;;;22.20;56.90;;;;;;4922290;28;90376;-62
2022/06/15 01:09:17;;;;;;;65.20;51.08;;;22.20;57.00;;;;;;4925958;28;89840;-62
2022/06/15 01:12:10;;;;;;;64.95;50.95;;;22.10;56.80;;;;;;4933480;28;90147;-62
2022/06/15 01:14:50;;;;;;;65.15;51.17;;;22.10;56.90;;;;;;4917183;28;92269;-61
2022/06/15 01:17:54;;;;;;;64.47;51.05;;;22.10;57.00;;;;;;4925277;28;90201;-61
2022/06/15 01:20:52;;;;;;;64.88;51.15;;;22.10;57.00;;;;;;4916290;28;89889;-61
2022/06/15 01:23:56;;;;;;;63.97;50.90;;;22.00;57.20;;;;;;4927938;28;90297;-62
2022/06/15 01:26:43;;;;;;;65.82;51.17;;;22.00;57.10;;;;;;4899225;28;90256;-61
2022/06/15 01:29:27;;;;;;;64.07;50.70;;;22.00;57.10;;;;;;4906200;28;90984;-62
2022/06/15 01:32:16;;;;;;;64.97;51.10;;;22.00;57.10;;;;;;4921108;28;90153;-62
2022/06/15 01:34:55;;;;;;;66.22;50.92;;;22.00;57.20;;;;;;4920060;28;90675;-60
2022/06/15 01:37:34;;;;;;;66.57;51.28;;;22.00;57.10;;;;;;4925979;28;91243;-62
2022/06/15 01:40:13;;;;;;;64.05;50.83;;;22.00;57.20;;;;;;4917250;28;89533;-62
2022/06/15 01:42:46;;;;;;;63.45;50.85;;;21.90;57.20;;;;;;4918916;28;90295;-62
2022/06/15 01:45:18;;;;;;;63.72;51.03;;;21.90;57.20;;;;;;4911712;28;90391;-60
2022/06/15 01:47:47;;;;;;;63.72;50.72;;;21.90;57.40;;;;;;4927132;28;89557;-61
2022/06/15 01:50:37;;;;;;;63.47;50.78;;;21.90;57.40;;;;;;4922384;28;90165;-62
2022/06/15 01:53:14;;;;;;;64.30;50.88;;;21.90;57.40;;;;;;4922044;28;90003;-62
2022/06/15 01:55:50;;;;;;;63.83;50.78;;;21.90;57.50;;;;;;4911928;28;91916;-62
2022/06/15 01:58:19;;;;;;;64.38;50.75;;;21.80;57.40;;;;;;4923576;28;90907;-62
2022/06/15 02:00:56;;;;;;;63.13;50.58;;;21.80;57.40;;;;;;4926121;28;90013;-61
2022/06/15 02:03:34;;;;;;;63.85;50.78;;;21.80;57.40;;;;;;4933626;28;89626;-60
2022/06/15 02:06:10;;;;;;;64.72;51.10;;;21.80;57.50;;;;;;4912358;28;91257;-61
2022/06/15 02:09:00;;;;;;;63.60;50.65;;;21.80;57.40;;;;;;4921493;28;89780;-61
2022/06/15 02:11:35;;;;;;;63.70;50.75;;;21.80;57.40;;;;;;4930730;28;90074;-61
2022/06/15 02:14:05;;;;;;;64.18;50.92;;;21.80;57.60;;;;;;4918011;28;89216;-61
2022/06/15 02:17:00;;;;;;;64.03;50.65;;;21.80;57.50;;;;;;4922472;28;89786;-61
2022/06/15 02:19:32;;;;;;;64.60;51.22;;;21.70;57.60;;;;;;4925792;28;90535;-62
2022/06/15 02:22:04;;;;;;;63.95;50.90;;;21.70;57.60;;;;;;4920750;28;90356;-62
2022/06/15 02:24:32;;;;;;;64.43;50.80;;;21.70;57.70;;;;;;4920820;28;89568;-61
2022/06/15 02:26:58;;;;;;;63.17;50.50;;;21.60;58.20;;;;;;4920954;28;90474;-61
2022/06/15 02:29:27;;;;;;;63.63;50.65;;;21.70;57.70;;;;;;4918630;28;91520;-61
2022/06/15 02:31:56;;;;;;;63.00;50.50;;;21.60;58.20;;;;;;4924191;28;90478;-62
2022/06/15 02:34:23;;;;;;;64.85;50.67;;;21.60;57.60;;;;;;4926247;28;90634;-61
2022/06/15 02:36:49;;;;;;;63.75;50.70;;;21.60;57.70;;;;;;4915044;28;91039;-62
2022/06/15 02:39:14;;;;;;;64.22;50.85;;;21.70;57.70;;;;;;4925929;28;90008;-62
2022/06/15 02:41:40;;;;;;;63.97;51.20;;;21.60;57.70;;;;;;4921847;28;90339;-61
2022/06/15 02:44:08;;;;;;;63.42;50.53;;;21.60;57.70;;;;;;4921124;28;90463;-61
2022/06/15 02:46:39;;;;;;;63.20;50.72;;;21.60;57.80;;;;;;4919071;28;93664;-61
2022/06/15 02:49:05;;;;;;;63.97;50.55;;;21.60;57.80;;;;;;4925646;28;90755;-63
2022/06/15 02:51:55;;;;;;;64.45;50.58;;;21.60;57.70;;;;;;4923677;28;90116;-61
2022/06/15 02:54:42;;;;;;;62.65;50.55;;;21.50;57.90;;;;;;4921458;28;92682;-61
2022/06/15 02:57:08;;;;;;;64.20;50.67;;;21.50;57.70;;;;;;4926401;28;89958;-62
2022/06/15 02:59:34;;;;;;;63.80;50.78;;;21.50;57.80;;;;;;4921088;28;90420;-60
2022/06/15 03:01:59;;;;;;;66.53;50.80;;;21.50;57.60;;;;;;4920907;28;90514;-62
2022/06/15 03:04:25;;;;;;;63.95;50.47;;;21.50;57.80;;;;;;4922242;28;91582;-62
2022/06/15 03:06:51;;;;;;;63.47;50.55;;;21.50;57.80;;;;;;4910819;28;90825;-60
2022/06/15 03:09:16;;;;;;;63.72;50.53;;;21.50;57.90;;;;;;4919672;28;90072;-63
2022/06/15 03:11:45;;;;;;;63.28;50.55;;;21.50;57.90;;;;;;4924266;28;91467;-62
2022/06/15 03:14:10;;;;;;;63.95;50.47;;;21.50;57.80;;;;;;4921087;28;91739;-61
2022/06/15 03:16:38;;;;;;;63.47;50.55;;;21.40;57.80;;;;;;4917843;28;90143;-61
2022/06/15 03:19:03;;;;;;;63.42;50.47;;;21.40;57.80;;;;;;4930214;28;90344;-61
2022/06/15 03:21:29;;;;;;;63.45;50.53;;;21.40;57.80;;;;;;4914393;28;95157;-61
2022/06/15 03:23:55;;;;;;;62.65;50.30;;;21.40;57.90;;;;;;4917816;28;92655;-61
2022/06/15 03:26:20;;;;;;;63.80;50.60;;;21.40;57.80;;;;;;4925701;28;92625;-61
2022/06/15 03:28:46;;;;;;;64.13;50.70;;;21.40;57.80;;;;;;4926431;28;90420;-61
2022/06/15 03:31:11;;;;;;;63.00;50.65;;;21.40;57.90;;;;;;4923990;28;90531;-61
2022/06/15 03:33:37;;;;;;;63.15;50.33;;;21.40;57.90;;;;;;4928597;28;89608;-61
2022/06/15 03:36:04;;;;;;;64.07;50.55;;;21.30;57.90;;;;;;4923364;28;92426;-61
2022/06/15 03:38:31;;;;;;;62.33;50.35;;;21.40;57.80;;;;;;4917612;28;91212;-61
2022/06/15 03:40:57;;;;;;;63.47;50.65;;;21.40;57.80;;;;;;4912938;28;91727;-61
2022/06/15 03:43:23;;;;;;;62.97;50.58;;;21.40;57.90;;;;;;4916919;28;98190;-61
2022/06/15 03:45:49;;;;;;;63.25;50.20;;;21.40;57.80;;;;;;4916339;28;90196;-62
2022/06/15 03:48:15;;;;;;;62.95;50.35;;;21.40;57.80;;;;;;4928590;28;90207;-61
2022/06/15 03:50:40;;;;;;;62.45;50.33;;;21.40;57.80;;;;;;4923428;28;89462;-61
2022/06/15 03:53:07;;;;;;;63.35;50.42;;;21.30;57.70;;;;;;4926823;28;89051;-61
2022/06/15 03:55:33;;;;;;;62.33;50.35;;;21.40;57.90;;;;;;4916222;28;92972;-60
2022/06/15 03:57:59;;;;;;;63.03;50.65;;;21.30;57.90;;;;;;4920155;28;89946;-61
2022/06/15 04:00:27;;;;;;;62.47;50.42;;;21.40;57.80;;;;;;4926253;28;91235;-60
2022/06/15 04:02:53;;;;;;;63.33;50.35;;;21.30;57.90;;;;;;4923169;28;90010;-61
2022/06/15 04:05:25;;;;;;;62.95;50.25;;;21.30;57.90;;;;;;4938239;22;91225;-75
2022/06/15 04:10:37;;;;;;;63.65;50.50;;;21.30;57.80;;;;;;4910024;28;92681;-75
2022/06/15 04:13:03;;;;;;;62.67;50.05;;;21.30;57.90;;;;;;4948291;28;91734;-75
2022/06/15 04:15:29;;;;;;;62.03;50.25;;;21.30;57.90;;;;;;4951782;28;89985;-75
2022/06/15 04:17:56;;;;;;;62.95;50.33;;;21.30;57.80;;;;;;4950781;28;89570;-75
2022/06/15 04:20:36;;;;;;;63.88;50.08;;;21.30;57.80;;;;;;4946121;28;91629;-75
2022/06/15 04:23:09;;;;;;;63.53;50.47;;;21.30;57.80;;;;;;4951786;28;91063;-75
2022/06/15 04:25:58;;;;;;;63.15;50.30;;;21.20;57.90;;;;;;4942332;28;92471;-75
2022/06/15 04:28:25;;;;;;;62.05;50.13;;;21.20;58.00;;;;;;4952957;28;95512;-75
2022/06/15 04:30:50;;;;;;;63.47;50.20;;;21.10;58.00;;;;;;4937228;28;89870;-74
2022/06/15 04:33:17;;;;;;;63.25;50.22;;;21.00;58.30;;;;;;4941976;28;91945;-75
2022/06/15 04:35:44;;;;;;;62.15;50.15;;;20.90;58.60;;;;;;4934715;28;93157;-75
2022/06/15 04:38:10;;;;;;;62.65;50.15;;;20.90;59.00;;;;;;4947550;28;90553;-74
2022/06/15 04:40:37;;;;;;;63.33;50.08;;;20.80;59.10;;;;;;4942403;28;93552;-75
2022/06/15 04:43:05;;;;;;;62.65;50.03;;;20.90;59.30;;;;;;4948453;28;89970;-74
2022/06/15 04:45:31;;;;;;;62.22;50.20;;;20.90;59.30;;;;;;4947728;28;90986;-75
2022/06/15 04:47:57;;;;;;;62.15;50.03;;;21.00;58.90;;;;;;4932203;28;92656;-74
2022/06/15 04:50:23;;;;;;;63.05;50.28;;;21.00;58.90;;;;;;4924431;28;90864;-73
2022/06/15 04:52:49;;;;;;;64.05;50.03;;;21.00;59.10;;;;;;4950365;28;89805;-74
2022/06/15 04:55:18;;;;;;;64.10;50.25;;;21.00;58.80;;;;;;4945516;28;91450;-73
2022/06/15 04:57:44;;;;;;;61.72;49.85;;;21.10;58.60;;;;;;4956999;28;90124;-75
2022/06/15 05:00:15;;;;;;;66.25;50.28;;;21.20;58.90;;;;;;4946563;28;89622;-75
2022/06/15 05:02:40;;;;;;;63.75;50.05;;;21.20;58.60;;;;;;4950841;28;92106;-74
2022/06/15 05:05:07;;;;;;;62.70;49.95;;;21.20;58.30;;;;;;4945053;28;90051;-75
2022/06/15 05:07:32;;;;;;;62.47;49.92;;;21.10;58.30;;;;;;4944967;28;91059;-74
2022/06/15 05:09:58;;;;;;;64.43;50.10;;;21.10;58.60;;;;;;4946451;28;90711;-74
2022/06/15 05:12:24;;;;;;;62.72;50.05;;;21.10;58.90;;;;;;4954863;28;90323;-73
2022/06/15 05:14:50;;;;;;;65.13;50.30;;;21.10;58.70;;;;;;4948716;28;92411;-75
2022/06/15 05:17:18;;;;;;;64.45;50.17;;;21.10;58.50;;;;;;4949250;28;90865;-75
2022/06/15 05:19:44;;;;;;;63.15;50.15;;;21.20;58.50;;;;;;4950953;28;91715;-74
2022/06/15 05:22:09;;;;;;;62.33;49.88;;;21.30;58.50;;;;;;4944245;28;89930;-74
2022/06/15 05:24:36;;;;;;;63.35;50.00;;;21.20;57.90;;;;;;4953360;28;90359;-74
2022/06/15 05:27:02;;;;;;;62.25;50.10;;;21.10;57.90;;;;;;4926599;28;91045;-74
2022/06/15 05:29:28;;;;;;;65.72;50.45;;;21.00;57.90;;;;;;4933059;28;92240;-74
2022/06/15 05:31:54;;;;;;;62.95;50.13;;;21.00;58.20;;;;;;4945538;28;89308;-74
2022/06/15 05:34:20;;;;;;;63.78;50.20;;;21.00;58.10;;;;;;4955180;28;90927;-74
2022/06/15 05:36:46;;;;;;;66.57;50.45;;;21.10;58.40;;;;;;4935232;28;90635;-75
2022/06/15 05:39:13;;;;;;;70.55;51.00;;;21.30;57.90;;;;;;4950984;28;90780;-74
2022/06/15 05:41:39;;;;;;;66.70;51.20;;;21.50;58.30;;;;;;4949344;28;98147;-74
2022/06/15 05:46:45;;;;;;;71.60;51.55;;;21.90;57.20;;;;;;4950219;28;90554;-75
2022/06/15 05:49:11;;;;;;;68.80;51.53;;;21.90;57.00;;;;;;4957940;28;89471;-74
2022/06/15 05:51:37;;;;;;;71.90;51.72;;;21.90;57.10;;;;;;4940876;28;96039;-73
2022/06/15 05:54:03;;;;;;;69.38;51.63;;;21.90;57.10;;;;;;4957234;28;89912;-74
2022/06/15 05:56:28;;;;;;;68.90;51.20;;;21.90;57.30;;;;;;4943594;28;90072;-74
2022/06/15 05:58:54;;;;;;;67.78;51.65;;;22.00;57.30;;;;;;4935661;28;90218;-73
2022/06/15 06:01:26;;;;;;;68.57;51.13;;;22.00;57.20;;;;;;4925137;28;90538;-74
2022/06/15 06:03:52;;;;;;;69.22;51.80;;;22.00;57.10;;;;;;4932531;28;93428;-74
2022/06/15 06:06:18;;;;;;;67.05;51.25;;;22.00;57.00;;;;;;4949382;28;91876;-73
2022/06/15 06:08:44;;;;;;;67.35;51.28;;;22.20;56.90;;;;;;4946577;28;91801;-74
2022/06/15 06:11:10;;;;;;;70.30;51.38;;;22.30;56.70;;;;;;4931555;28;90029;-75
2022/06/15 06:13:35;;;;;;;67.88;51.03;;;22.30;56.90;;;;;;4932921;28;92718;-74
2022/06/15 06:16:01;;;;;;;67.70;51.22;;;22.30;57.20;;;;;;4954065;28;90926;-74
2022/06/15 06:18:27;;;;;;;71.05;51.22;;;22.40;57.30;;;;;;4939134;28;90204;-74
2022/06/15 06:20:53;;;;;;;66.32;51.25;;;22.40;57.50;;;;;;4944628;28;96447;-74
2022/06/15 06:23:19;;;;;;;67.38;52.28;;;22.40;57.40;;;;;;4933326;28;92043;-73
2022/06/15 06:25:47;;;;;;;67.82;51.78;;;21.20;55.50;;;;;;4941136;28;89657;-73
2022/06/15 06:28:34;;;;;;;66.40;52.33;;;20.80;58.40;;;;;;4953755;28;90895;-72
2022/06/15 06:31:02;;;;;;;66.47;52.33;;;20.50;56.40;;;;;;4938860;28;89494;-72
2022/06/15 06:33:30;;;;;;;67.75;52.20;;;20.10;57.40;;;;;;4941044;28;90635;-73
2022/06/15 06:35:58;;;;;;;64.60;52.22;;;19.80;58.60;;;;;;4927179;28;96119;-73
2022/06/15 06:38:24;;;;;;;69.97;51.85;;;19.60;59.50;;;;;;4946776;28;90149;-73
2022/06/15 06:40:52;;;;;;;65.72;50.72;;;19.60;59.90;;;;;;4940074;28;91219;-73
2022/06/15 06:43:18;;;;;;;65.85;51.30;;;20.00;62.20;;;;;;4949163;28;91116;-74
2022/06/15 06:45:44;;;;;;;68.47;52.40;;;20.10;59.00;;;;;;4938586;28;91095;-72
2022/06/15 06:48:10;;;;;;;66.95;52.10;;;20.20;58.80;;;;;;4945681;28;95320;-72
2022/06/15 06:50:37;;;;;;;67.75;51.75;;;20.00;58.90;;;;;;4946633;28;90077;-72
2022/06/15 06:53:07;;;;;;;64.88;52.40;;;20.00;59.30;;;;;;4943772;28;91407;-74
2022/06/15 06:55:32;;;;;;;69.05;52.25;;;20.00;58.60;;;;;;4945865;28;91255;-72
2022/06/15 06:58:00;;;;;;;69.60;51.97;;;20.10;59.20;;;;;;4947906;28;92065;-75
2022/06/15 07:00:27;;;;;;;68.22;52.17;;;19.90;59.70;;;;;;4945993;28;90698;-73
2022/06/15 07:02:53;;;;;;;67.80;51.60;;;19.80;59.90;;;;;;4951817;28;90224;-72
2022/06/15 07:05:19;;;;;;;68.43;51.95;;;19.80;59.90;;;;;;4947481;28;90422;-72
2022/06/15 07:07:45;;;;;;;66.25;52.17;;;19.90;59.00;;;;;;4927405;28;89896;-73
2022/06/15 07:10:11;;;;;;;66.05;52.40;;;20.00;59.30;;;;;;4922254;28;90430;-74
2022/06/15 07:12:38;;;;;;;68.13;52.03;;;19.90;59.30;;;;;;4936785;28;94388;-71
2022/06/15 07:15:08;;;;;;;69.72;51.95;;;20.00;60.90;;;;;;4940432;28;90722;-71
2022/06/15 07:17:34;;;;;;;66.63;51.92;;;20.10;59.00;;;;;;4940926;28;92138;-73
2022/06/15 07:19:59;;;;;;;66.18;52.00;;;20.30;59.80;;;;;;4944313;28;93117;-73
2022/06/15 07:22:25;;;;;;;66.80;52.05;;;20.30;59.90;;;;;;4930683;28;91332;-73
2022/06/15 07:24:50;;;;;;;70.20;52.83;;;20.60;60.30;;;;;;4938765;28;90607;-73
2022/06/15 07:27:17;;;;;;;70.63;53.00;;;20.40;59.40;;;;;;4931609;28;91364;-73
2022/06/15 07:29:46;;;;;;;68.63;52.80;;;20.30;59.80;;;;;;4930791;28;90565;-73
2022/06/15 07:32:13;;;;;;;67.43;52.20;;;20.40;61.20;;;;;;4926396;28;90547;-72
2022/06/15 07:34:39;;;;;;;69.43;52.67;;;20.60;60.60;;;;;;4938351;28;90008;-72
2022/06/15 07:37:05;;;;;;;68.78;52.38;;;20.60;59.30;;;;;;4942578;28;90645;-73
2022/06/15 07:39:30;;;;;;;70.70;53.03;;;20.80;59.60;;;;;;4950601;28;94294;-72
2022/06/15 07:41:57;;;;;;;67.80;51.55;;;20.80;58.50;;;;;;4939921;28;91912;-71
2022/06/15 07:44:24;;;;;;;69.03;53.08;;;21.10;59.20;;;;;;4945965;28;90762;-72
2022/06/15 07:49:54;;;;;;;70.45;52.80;;;21.30;57.40;;;;;;4945256;28;90391;-73
2022/06/15 07:49:56;;;;;;;68.07;52.50;;;21.10;57.60;;;;;;4956354;28;90303;-74
2022/06/15 07:52:29;;;;;;;68.18;52.33;;;21.00;57.10;;;;;;4946829;28;90682;-74
2022/06/15 07:54:55;;;;;;;68.10;52.65;;;21.10;57.70;;;;;;4946241;28;90053;-74
2022/06/15 07:57:21;;;;;;;68.85;52.55;;;21.30;57.70;;;;;;4945319;28;93025;-74
2022/06/15 07:59:47;;;;;;;72.53;52.92;;;21.40;56.70;;;;;;4945252;28;91382;-74
2022/06/15 08:02:13;;;;;;;70.85;52.50;;;21.40;55.10;;;;;;4921800;28;92910;-73
2022/06/15 08:04:39;;;;;;;69.85;52.63;;;21.50;56.60;;;;;;4937650;28;91467;-72
2022/06/15 08:07:07;;;;;;;69.88;52.20;;;21.50;55.80;;;;;;4943079;28;91582;-74
2022/06/15 08:09:33;;;;;;;70.97;52.50;;;21.50;56.70;;;;;;4944874;28;90246;-74
2022/06/15 08:12:19;;;;;;;68.47;52.20;;;21.60;56.00;;;;;;4923034;28;91249;-73
2022/06/15 08:14:51;;;;;;;69.03;52.47;;;21.80;56.80;;;;;;4943411;28;90141;-73
2022/06/15 08:17:25;;;;;;;70.03;52.60;;;21.80;55.30;;;;;;4951123;28;90139;-73
2022/06/15 08:20:01;;;;;;;68.32;52.70;;;21.70;54.80;;;;;;4941686;28;90271;-73
2022/06/15 08:22:27;;;;;;;69.45;52.50;;;21.80;55.20;;;;;;4940361;28;90271;-73
2022/06/15 08:24:54;;;;;;;68.25;52.53;;;21.90;54.00;;;;;;4950263;28;90073;-73
2022/06/15 08:27:22;;;;;;;71.50;52.28;;;22.00;55.70;;;;;;4937852;28;91892;-74
2022/06/15 08:29:49;;;;;;;70.38;51.88;;;22.10;54.80;;;;;;4943992;28;91658;-73
2022/06/15 08:32:16;;;;;;;71.93;52.63;;;22.30;54.90;;;;;;4948867;28;90995;-74
2022/06/15 08:34:42;;;;;;;69.63;52.55;;;22.30;52.70;;;;;;4939269;28;91101;-73
2022/06/15 08:37:12;;;;;;;71.00;52.10;;;22.40;53.30;;;;;;4943852;28;89493;-73
2022/06/15 08:39:38;;;;;;;70.45;52.63;;;22.30;54.10;;;;;;4942627;28;89811;-73
2022/06/15 08:42:17;;;;;;;68.00;52.28;;;22.40;53.00;;;;;;4936516;28;90325;-74
2022/06/15 08:45:11;;;;;;;68.63;52.20;;;22.30;51.30;;;;;;4935439;28;92611;-74
2022/06/15 08:48:01;;;;;;;68.53;52.03;;;22.50;53.20;;;;;;4933160;28;90504;-73
2022/06/15 08:50:42;;;;;;;70.15;52.10;;;22.60;52.70;;;;;;4941694;28;91742;-73
2022/06/15 08:53:16;;;;;;;68.63;52.15;;;22.30;51.20;;;;;;4921337;28;92259;-73
2022/06/15 08:55:53;;;;;;;69.60;51.88;;;22.30;51.30;;;;;;4943270;28;90199;-74
2022/06/15 08:58:36;;;;;;;71.22;52.50;;;22.40;53.30;;;;;;4937865;28;91602;-73
2022/06/15 09:01:13;;;;;;;75.18;52.45;;;22.60;53.30;;;;;;4911088;28;89984;-72
2022/06/15 09:04:08;;;;;;;69.70;52.03;;;22.60;51.50;;;;;;4945202;28;90731;-73
2022/06/15 09:06:48;;;;;;;69.75;52.35;;;22.80;53.20;;;;;;4944277;28;90389;-73
2022/06/15 09:09:49;;;;;;;70.60;52.05;;;22.80;52.30;;;;;;4925533;28;90364;-73
2022/06/15 09:12:59;;;;;;;72.07;52.30;;;22.80;52.50;;;;;;4891490;28;90316;-73
2022/06/15 09:15:24;;;;;;;68.40;51.85;;;23.00;52.20;;;;;;4942901;28;90612;-74
2022/06/15 09:17:55;;;;;;;72.57;52.75;;;23.10;52.50;;;;;;4931254;28;94233;-73
2022/06/15 09:20:30;;;;;;;;;;;23.00;50.70;;;;;;4934634;28;89717;-73
2022/06/15 09:23:02;;;;;;;69.93;52.08;;;23.00;51.60;;;;;;4936980;28;93411;-73
2022/06/15 09:25:40;;;;;;;70.80;52.45;;;23.00;51.60;;;;;;4939507;28;93262;-74
2022/06/15 09:28:15;;;;;;;70.78;52.28;;;23.00;51.30;;;;;;4924442;28;92196;-74
2022/06/15 09:30:42;;;;;;;70.60;52.78;;;23.10;50.70;;;;;;4936909;28;91185;-73
2022/06/15 09:33:32;;;;;;;69.07;52.75;;;23.00;50.10;;;;;;4940672;28;90022;-73
2022/06/15 09:36:12;;;;;;;71.10;52.72;;;22.90;51.40;;;;;;4944225;28;94283;-73
2022/06/15 09:38:41;;;;;;;70.47;52.83;;;22.80;49.40;;;;;;4941724;28;90471;-72
2022/06/15 09:41:23;;;;;;;69.47;52.58;;;22.90;49.80;;;;;;4937499;28;91265;-73
2022/06/15 09:44:12;;;;;;;70.05;53.03;;;22.90;51.90;;;;;;4937493;28;93471;-73
2022/06/15 09:46:38;;;;;;;68.32;52.10;;;23.00;51.80;;;;;;4928051;28;90275;-73
2022/06/15 09:49:11;;;;;;;70.47;53.08;;;23.20;52.00;;;;;;4922834;28;91518;-72
2022/06/15 09:51:59;;;;;;;70.60;52.35;;;23.20;49.90;;;;;;4939010;28;90766;-72
2022/06/15 09:54:57;;;;;;;72.18;52.58;;;23.40;51.90;;;;;;4930443;28;90521;-70
2022/06/15 09:57:23;;;;;;;70.10;52.78;;;23.20;50.30;;;;;;4944954;28;91463;-72
2022/06/15 09:59:49;;;;;;;71.88;52.60;;;23.20;51.40;;;;;;4932875;28;90998;-71
2022/06/15 10:02:31;;;;;;;70.57;52.92;;;23.30;51.50;;;;;;4942265;28;89747;-72
2022/06/15 10:04:59;;;;;;;72.18;53.15;;;23.50;50.30;;;;;;4937146;28;90144;-71
2022/06/15 10:07:40;;;;;;;71.57;52.75;;;23.50;50.30;;;;;;4926952;28;92458;-71
2022/06/15 10:10:24;;;;;;;71.95;53.47;;;23.60;50.70;;;;;;4937490;28;90353;-71
2022/06/15 10:12:59;;;;;;;69.60;53.03;;;23.60;50.00;;;;;;4944879;28;90909;-71
2022/06/15 10:15:34;;;;;;;72.35;53.22;;;23.70;50.00;;;;;;4936162;28;91036;-71
2022/06/15 10:18:26;;;;;;;73.30;52.97;;;23.70;49.20;;;;;;4923124;28;91688;-71
2022/06/15 10:21:14;;;;;;;73.97;52.63;;;23.60;49.40;;;;;;4918209;28;92653;-71
2022/06/15 10:23:51;;;;;;;70.93;52.88;;;23.60;50.90;;;;;;4931491;28;91342;-72
2022/06/15 10:26:40;;;;;;;70.07;52.40;;;23.70;49.30;;;;;;4940528;28;93337;-73
2022/06/15 10:29:14;;;;;;;72.60;53.13;;;23.70;50.20;;;;;;4940380;28;89807;-74
2022/06/15 10:31:56;;;;;;;70.03;53.17;;;23.80;50.10;;;;;;4928402;28;92826;-73
2022/06/15 10:34:35;;;;;;;72.25;52.83;;;23.80;49.20;;;;;;4910052;28;93297;-74
2022/06/15 10:37:08;;;;;;;72.38;53.25;;;23.80;50.00;;;;;;4936928;28;94565;-72
2022/06/15 10:39:40;;;;;;;70.65;52.70;;;23.80;49.20;;;;;;4899558;28;93321;-73
2022/06/15 10:42:09;;;;;;;72.22;52.85;;;23.80;50.00;;;;;;4936944;28;92079;-73
2022/06/15 10:44:40;;;;;;;71.80;52.85;;;23.90;50.20;;;;;;4926511;28;90934;-73
2022/06/15 10:47:07;;;;;;;70.32;53.15;;;24.00;49.90;;;;;;4930838;28;90581;-73
2022/06/15 10:49:40;;;;;;;71.07;52.90;;;23.90;49.50;;;;;;4923238;28;92529;-73
2022/06/15 10:52:24;;;;;;;71.13;53.08;;;24.00;50.00;;;;;;4928043;28;92529;-72
2022/06/15 11:03:39;;;;;;;73.15;53.80;;;23.90;49.20;;;;;;4936148;28;89461;-73
2022/06/15 11:06:05;;;;;;;68.78;52.95;;;23.90;49.40;;;;;;4924220;28;92015;-72
2022/06/15 11:08:34;;;;;;;69.13;53.03;;;24.00;49.30;;;;;;4937128;28;90219;-72
2022/06/15 11:11:24;;;;;;;70.18;52.55;;;24.10;49.40;;;;;;4940280;28;91278;-72
2022/06/15 11:14:12;;;;;;;70.00;53.13;;;24.20;49.00;;;;;;4946770;28;92488;-73
2022/06/15 11:19:26;;;;;;;76.88;53.67;;;24.10;49.20;;;;;;4946229;28;96908;-72
2022/06/15 11:22:14;;;;;;;70.57;53.35;;;24.20;48.90;;;;;;4935832;28;90142;-73
2022/06/15 11:24:47;;;;;;;71.50;53.58;;;24.20;49.10;;;;;;4939181;28;91795;-72
2022/06/15 11:27:37;;;;;;;73.57;53.42;;;24.10;49.40;;;;;;4937814;28;90263;-72
2022/06/15 11:30:26;;;;;;;72.38;53.45;;;24.10;49.10;;;;;;4949109;28;89278;-73
2022/06/15 11:33:18;;;;;;;72.05;52.55;;;24.20;49.50;;;;;;4941043;28;90438;-73
2022/06/15 11:36:02;;;;;;;71.30;53.40;;;24.30;49.80;;;;;;4921752;28;95997;-72
2022/06/15 11:38:37;;;;;;;73.10;53.63;;;24.20;49.00;;;;;;4928771;28;91420;-73
2022/06/15 11:41:20;;;;;;;68.82;52.97;;;24.30;49.30;;;;;;4922666;28;90253;-73
2022/06/15 11:43:47;;;;;;;69.18;52.55;;;24.40;49.20;;;;;;4941204;28;91450;-73
2022/06/15 11:46:45;;;;;;;74.55;53.65;;;24.30;50.00;;;;;;4958224;28;90419;-73
2022/06/15 11:49:20;;;;;;;69.15;53.10;;;24.30;49.00;;;;;;4915796;28;91961;-72
2022/06/15 11:52:34;;;;;;;74.32;53.55;;;24.40;50.10;;;;;;4945031;28;90609;-73
2022/06/15 11:55:19;;;;;;;72.20;53.08;;;24.30;49.50;;;;;;4926320;28;90624;-73
2022/06/15 11:58:10;;;;;;;70.60;52.80;;;24.40;50.10;;;;;;4942081;28;94910;-71
2022/06/15 12:00:42;;;;;;;73.90;53.28;;;24.40;50.40;;;;;;4922867;28;90967;-71
2022/06/15 12:03:33;;;;;;;71.43;53.55;;;24.40;50.30;;;;;;4938226;28;95980;-71
2022/06/15 12:06:08;;;;;;;75.90;54.22;;;24.40;50.00;;;;;;4940451;28;96121;-71
2022/06/15 12:08:37;;;;;;;72.22;53.08;;;24.40;49.60;;;;;;4935018;28;91252;-70
2022/06/15 12:14:47;;;;;;;70.55;53.25;;;24.40;49.80;;;;;;4937766;28;90642;-74
2022/06/15 12:17:29;;;;;;;71.00;53.38;;;24.50;49.80;;;;;;4935675;28;90970;-75
2022/06/15 12:20:15;;;;;;;71.40;53.40;;;24.50;49.80;;;;;;4932812;28;91445;-74
2022/06/15 12:23:03;;;;;;;73.32;53.00;;;24.50;49.20;;;;;;4950029;28;90459;-75
2022/06/15 12:25:35;;;;;;;70.60;53.13;;;24.60;49.60;;;;;;4940434;28;91203;-75
2022/06/15 12:28:16;;;;;;;71.53;53.40;;;24.60;50.90;;;;;;4943789;28;90197;-73
2022/06/15 12:30:47;;;;;;;;;;;24.80;50.90;;;;;;4918572;28;94902;-73
2022/06/15 12:33:49;;;;;;;69.47;53.05;;;24.60;49.40;;;;;;4945222;28;90614;-74
2022/06/15 12:36:21;;;;;;;72.85;53.10;;;24.60;50.20;;;;;;4934988;28;90305;-75
2022/06/15 12:39:12;;;;;;;68.95;53.00;;;24.60;50.00;;;;;;4937635;28;96432;-74
2022/06/15 12:44:38;;;;;;;74.05;53.75;;;24.70;51.00;;;;;;4944814;28;92014;-76
2022/06/15 12:47:09;;;;;;;74.00;53.95;;;24.70;50.10;;;;;;4928586;28;91965;-75
2022/06/15 12:50:13;;;;;;;73.95;53.65;;;24.80;50.20;;;;;;4926702;28;93991;-74
2022/06/15 12:52:58;;;;;;;74.03;53.38;;;24.80;49.50;;;;;;4947503;28;89656;-72
2022/06/15 12:55:59;;;;;;;71.55;53.42;;;24.90;50.30;;;;;;4942432;28;90466;-72
2022/06/15 12:59:00;;;;;;;71.82;53.60;;;25.00;50.50;;;;;;4939200;28;92193;-73
2022/06/15 13:01:43;;;;;;;72.57;53.50;;;24.80;50.60;;;;;;4943993;28;91985;-73
2022/06/15 13:04:27;;;;;;;72.68;53.88;;;24.80;50.90;;;;;;4935316;28;92519;-74
2022/06/15 13:07:26;;;;;;;70.72;53.42;;;24.80;50.60;;;;;;4935610;28;92331;-72
2022/06/15 13:10:06;;;;;;;70.05;53.50;;;24.90;49.30;;;;;;4950002;28;90297;-72
2022/06/15 13:13:01;;;;;;;69.97;53.35;;;24.80;49.40;;;;;;4954948;28;90565;-72
2022/06/15 13:15:32;;;;;;;73.13;53.50;;;24.90;49.50;;;;;;4946432;28;90524;-73
2022/06/15 13:18:08;;;;;;;;;;;24.90;49.60;;;;;;4952094;28;90380;-72
2022/06/15 13:20:56;;;;;;;71.90;53.25;;;24.90;49.50;;;;;;4960679;28;90082;-73
2022/06/15 13:23:30;;;;;;;69.45;53.05;;;24.90;49.40;;;;;;4951973;28;89914;-72